Detalii statie CORIPLANT MIHALT [0000197B]

Toti senzorii

Date Temperatura solului [C]Precipitatii [mm]Voltaj baterie [mV]Leaf Wetness [Min]HC Air temperature [C]HC Relative humidity [%]Punctul de roua [C]
medieminmaxsumaultimatimpmedieminmaxmediemediemin
2019-04-19 19:00:00 0 6992 14.73 13.35 16.2 51.83 4.7 4.1
2019-04-19 20:00:00 0 6854 11.92 11.21 13.17 58.18 3.7 3.2
2019-04-19 21:00:00 0 6834 11.27 10.76 12.02 57.21 2.9 2.2
2019-04-19 22:00:00 0 6816 11.24 10.81 11.77 59.28 3.4 2.2
2019-04-19 23:00:00 0 6806 10.22 9.37 11.02 67.89 4.3 4.1
2019-04-20 00:00:00 0 6796 7.01 6.01 9.02 78.86 3.4 3.2
2019-04-20 01:00:00 0 6786 5.34 4.67 6.07 87.63 3.3 2.8
2019-04-20 02:00:00 0 6786 4.52 3.79 5.38 91.72 3.1 2.9
2019-04-20 03:00:00 0 6776 2.75 1.72 3.58 98.82 2.4 1.7
2019-04-20 04:00:00 0 6766 1.28 1.05 1.6 100 1.2 1
2019-04-20 05:00:00 0 6756 1.2 0.63 1.57 100 1.1 0.6
2019-04-20 06:00:00 0 6776 -0.03 -0.24 0.29 100 0 -0.1
2019-04-20 07:00:00 0 6904 0.68 -0.34 1.96 100 0.6 -0.2
2019-04-20 08:00:00 0 7010 5.26 2.48 7.84 96.41 4.6 2.4
2019-04-20 09:00:00 0 7088 10.16 7.76 12.2 76.16 5.9 5.3
2019-04-20 10:00:00 0 7088 12.62 11.64 13.75 65.02 6.1 5
2019-04-20 11:00:00 0 7176 14.68 13.88 15.5 54.24 5.3 4.5
2019-04-20 12:00:00 0 7196 15.97 15.18 16.69 45.52 4 2.9
2019-04-20 13:00:00 0 7196 16.88 15.85 17.75 43.71 4.2 3.2
2019-04-20 14:00:00 0 7196 16.92 15.84 17.88 42.22 3.8 2.5
2019-04-20 15:00:00 0 7196 17.48 16.61 18.28 38.41 2.9 1.9
2019-04-20 16:00:00 0 7196 17.57 17.07 18.16 39.21 3.3 2.3
2019-04-20 17:00:00 0 7196 17.22 16.76 17.73 38.9 2.8 2
2019-04-20 18:00:00 0 7206 16.2 15.9 16.55 39.84 2.3 1.3
2019-04-20 19:00:00 0 6992 14.87 13.11 15.98 41.42 1.6 1.2
2019-04-20 20:00:00 0 6864 11.17 9.64 13.23 52.87 1.7 1.5
2019-04-20 21:00:00 0 6844 9.08 8.59 9.43 60.5 1.7 1.4
2019-04-20 22:00:00 0 6826 7.43 6.07 8.44 65.85 1.2 0.6
2019-04-20 23:00:00 0 6806 6.17 5.6 6.77 69.96 1 0.8
2019-04-21 00:00:00 0 6796 4.89 3.76 6.52 74.67 0.6 0.4
2019-04-21 01:00:00 0 6786 3.85 3.1 4.64 78.93 0.4 0
2019-04-21 02:00:00 0 6776 2.87 2.47 3.37 82.82 0.1 -0.3
2019-04-21 03:00:00 0 6776 2.91 2.45 3.3 86.3 0.7 0.3
2019-04-21 04:00:00 0 6766 2.33 1.86 2.96 88.68 0.5 0
2019-04-21 05:00:00 0 6766 3.13 2.91 3.36 95.57 2.3 1.9
2019-04-21 06:00:00 0 6766 3.46 3.15 3.78 96.53 2.8 2.4
2019-04-21 07:00:00 0 6894 4.2 3.91 4.67 92.47 2.9 2.8
2019-04-21 08:00:00 0 7070 7.65 4.9 9.8 80.78 4.3 3.6
2019-04-21 09:00:00 0 7176 11.01 9.96 12.71 69.52 5.5 4.8
2019-04-21 10:00:00 0 7166 14.99 12.88 16.87 55.96 6 4.8
2019-04-21 11:00:00 0 7196 17.75 17.02 18.5 44.55 5.3 4.9
2019-04-21 12:00:00 0 7196 17.55 16.75 18.63 43.65 4.8 3.9
2019-04-21 13:00:00 0 7196 20.01 18.62 21.08 39.02 5.4 4.8
2019-04-21 14:00:00 0 7186 20.84 19.92 22.03 38.53 6 5.5
2019-04-21 15:00:00 0 7176 20.62 20.16 21.02 37.55 5.3 4.4